sensor_id;sensor_type;location;lat;lon;timestamp;P1;durP1;ratioP1;P2;durP2;ratioP2
79456;SDS011;69494;43.654;3.884;2023-06-10T00:01:34;6.43;;;2.17;;
79456;SDS011;69494;43.654;3.884;2023-06-10T00:04:01;4.95;;;2.25;;
79456;SDS011;69494;43.654;3.884;2023-06-10T00:06:27;4.97;;;2.40;;
79456;SDS011;69494;43.654;3.884;2023-06-10T00:08:53;5.05;;;2.20;;
79456;SDS011;69494;43.654;3.884;2023-06-10T00:11:20;4.75;;;2.08;;
79456;SDS011;69494;43.654;3.884;2023-06-10T00:16:11;4.40;;;2.03;;
79456;SDS011;69494;43.654;3.884;2023-06-10T00:18:36;4.70;;;2.27;;
79456;SDS011;69494;43.654;3.884;2023-06-10T00:23:32;4.65;;;2.00;;
79456;SDS011;69494;43.654;3.884;2023-06-10T00:26:02;5.75;;;1.98;;
79456;SDS011;69494;43.654;3.884;2023-06-10T00:28:27;6.63;;;2.30;;
79456;SDS011;69494;43.654;3.884;2023-06-10T00:30:52;3.90;;;1.92;;
79456;SDS011;69494;43.654;3.884;2023-06-10T00:33:18;5.00;;;2.03;;
79456;SDS011;69494;43.654;3.884;2023-06-10T00:35:43;6.00;;;2.03;;
79456;SDS011;69494;43.654;3.884;2023-06-10T00:38:08;4.45;;;2.10;;
79456;SDS011;69494;43.654;3.884;2023-06-10T00:40:38;5.27;;;2.07;;
79456;SDS011;69494;43.654;3.884;2023-06-10T00:43:04;5.68;;;2.17;;
79456;SDS011;69494;43.654;3.884;2023-06-10T00:45:29;7.87;;;2.80;;
79456;SDS011;69494;43.654;3.884;2023-06-10T00:47:55;4.10;;;1.90;;
79456;SDS011;69494;43.654;3.884;2023-06-10T00:50:20;6.07;;;2.92;;
79456;SDS011;69494;43.654;3.884;2023-06-10T00:52:45;4.38;;;2.00;;
79456;SDS011;69494;43.654;3.884;2023-06-10T00:55:13;4.28;;;1.95;;
79456;SDS011;69494;43.654;3.884;2023-06-10T00:57:39;8.65;;;2.03;;
79456;SDS011;69494;43.654;3.884;2023-06-10T01:00:04;6.13;;;2.40;;
79456;SDS011;69494;43.654;3.884;2023-06-10T01:02:32;5.65;;;2.03;;
79456;SDS011;69494;43.654;3.884;2023-06-10T01:04:58;6.15;;;2.47;;
79456;SDS011;69494;43.654;3.884;2023-06-10T01:07:40;5.40;;;2.25;;
79456;SDS011;69494;43.654;3.884;2023-06-10T01:10:23;4.57;;;1.92;;
79456;SDS011;69494;43.654;3.884;2023-06-10T01:13:00;5.50;;;1.92;;
79456;SDS011;69494;43.654;3.884;2023-06-10T01:15:28;4.43;;;1.92;;
79456;SDS011;69494;43.654;3.884;2023-06-10T01:17:54;5.00;;;2.10;;
79456;SDS011;69494;43.654;3.884;2023-06-10T01:20:19;5.65;;;2.40;;
79456;SDS011;69494;43.654;3.884;2023-06-10T01:22:45;4.80;;;2.13;;
79456;SDS011;69494;43.654;3.884;2023-06-10T01:25:10;4.80;;;2.28;;
79456;SDS011;69494;43.654;3.884;2023-06-10T01:27:36;4.90;;;2.15;;
79456;SDS011;69494;43.654;3.884;2023-06-10T01:30:06;4.78;;;2.38;;
79456;SDS011;69494;43.654;3.884;2023-06-10T01:32:40;5.35;;;2.30;;
79456;SDS011;69494;43.654;3.884;2023-06-10T01:35:08;6.32;;;2.30;;
79456;SDS011;69494;43.654;3.884;2023-06-10T01:37:33;4.28;;;2.08;;
79456;SDS011;69494;43.654;3.884;2023-06-10T01:40:01;5.63;;;2.25;;
79456;SDS011;69494;43.654;3.884;2023-06-10T01:42:30;4.72;;;2.00;;
79456;SDS011;69494;43.654;3.884;2023-06-10T01:44:56;4.72;;;2.15;;
79456;SDS011;69494;43.654;3.884;2023-06-10T01:47:22;5.28;;;2.13;;
79456;SDS011;69494;43.654;3.884;2023-06-10T01:49:47;5.18;;;1.98;;
79456;SDS011;69494;43.654;3.884;2023-06-10T01:52:12;4.55;;;2.20;;
79456;SDS011;69494;43.654;3.884;2023-06-10T01:54:38;4.50;;;1.97;;
79456;SDS011;69494;43.654;3.884;2023-06-10T01:57:03;5.63;;;2.60;;
79456;SDS011;69494;43.654;3.884;2023-06-10T01:59:28;4.85;;;1.98;;
79456;SDS011;69494;43.654;3.884;2023-06-10T02:01:54;4.10;;;1.90;;
79456;SDS011;69494;43.654;3.884;2023-06-10T02:04:19;5.22;;;2.42;;
79456;SDS011;69494;43.654;3.884;2023-06-10T02:06:44;5.07;;;2.42;;
79456;SDS011;69494;43.654;3.884;2023-06-10T02:09:10;3.97;;;1.85;;
79456;SDS011;69494;43.654;3.884;2023-06-10T02:11:35;4.80;;;2.40;;
79456;SDS011;69494;43.654;3.884;2023-06-10T02:14:01;5.22;;;2.47;;
79456;SDS011;69494;43.654;3.884;2023-06-10T02:16:26;4.97;;;2.13;;
79456;SDS011;69494;43.654;3.884;2023-06-10T02:18:51;5.70;;;2.53;;
79456;SDS011;69494;43.654;3.884;2023-06-10T02:21:17;5.40;;;1.97;;
79456;SDS011;69494;43.654;3.884;2023-06-10T02:23:42;5.23;;;2.37;;
79456;SDS011;69494;43.654;3.884;2023-06-10T02:26:07;6.77;;;2.60;;
79456;SDS011;69494;43.654;3.884;2023-06-10T02:28:32;4.67;;;2.30;;
79456;SDS011;69494;43.654;3.884;2023-06-10T02:30:57;5.40;;;2.33;;
79456;SDS011;69494;43.654;3.884;2023-06-10T02:33:24;5.43;;;2.58;;
79456;SDS011;69494;43.654;3.884;2023-06-10T02:35:49;4.90;;;2.30;;
79456;SDS011;69494;43.654;3.884;2023-06-10T02:38:14;4.93;;;2.42;;
79456;SDS011;69494;43.654;3.884;2023-06-10T02:40:40;4.70;;;2.03;;
79456;SDS011;69494;43.654;3.884;2023-06-10T02:43:05;4.83;;;2.30;;
79456;SDS011;69494;43.654;3.884;2023-06-10T02:45:30;5.23;;;2.23;;
79456;SDS011;69494;43.654;3.884;2023-06-10T02:47:55;4.80;;;2.03;;
79456;SDS011;69494;43.654;3.884;2023-06-10T02:50:20;4.95;;;2.35;;
79456;SDS011;69494;43.654;3.884;2023-06-10T02:52:46;5.30;;;2.28;;
79456;SDS011;69494;43.654;3.884;2023-06-10T02:55:12;5.28;;;2.40;;
79456;SDS011;69494;43.654;3.884;2023-06-10T02:57:37;4.57;;;2.05;;
79456;SDS011;69494;43.654;3.884;2023-06-10T03:00:02;5.28;;;2.30;;
79456;SDS011;69494;43.654;3.884;2023-06-10T03:02:33;4.50;;;2.20;;
79456;SDS011;69494;43.654;3.884;2023-06-10T03:05:02;5.65;;;2.33;;
79456;SDS011;69494;43.654;3.884;2023-06-10T03:07:27;5.22;;;2.28;;
79456;SDS011;69494;43.654;3.884;2023-06-10T03:09:52;4.07;;;1.90;;
79456;SDS011;69494;43.654;3.884;2023-06-10T03:12:18;5.15;;;2.60;;
79456;SDS011;69494;43.654;3.884;2023-06-10T03:14:43;4.50;;;2.03;;
79456;SDS011;69494;43.654;3.884;2023-06-10T03:17:08;4.93;;;2.20;;
79456;SDS011;69494;43.654;3.884;2023-06-10T03:19:34;6.33;;;2.60;;
79456;SDS011;69494;43.654;3.884;2023-06-10T03:22:12;4.18;;;2.15;;
79456;SDS011;69494;43.654;3.884;2023-06-10T03:24:38;4.32;;;2.22;;
79456;SDS011;69494;43.654;3.884;2023-06-10T03:27:06;4.65;;;2.33;;
79456;SDS011;69494;43.654;3.884;2023-06-10T03:29:31;4.50;;;2.17;;
79456;SDS011;69494;43.654;3.884;2023-06-10T03:31:57;5.05;;;2.30;;
79456;SDS011;69494;43.654;3.884;2023-06-10T03:34:22;4.88;;;2.05;;
79456;SDS011;69494;43.654;3.884;2023-06-10T03:36:48;5.55;;;2.97;;
79456;SDS011;69494;43.654;3.884;2023-06-10T03:39:13;5.40;;;2.00;;
79456;SDS011;69494;43.654;3.884;2023-06-10T03:41:39;4.50;;;2.30;;
79456;SDS011;69494;43.654;3.884;2023-06-10T03:44:04;4.17;;;2.17;;
79456;SDS011;69494;43.654;3.884;2023-06-10T03:46:29;4.53;;;2.08;;
79456;SDS011;69494;43.654;3.884;2023-06-10T03:48:54;4.17;;;2.10;;
79456;SDS011;69494;43.654;3.884;2023-06-10T03:51:20;6.05;;;2.15;;
79456;SDS011;69494;43.654;3.884;2023-06-10T03:53:46;4.63;;;2.13;;
79456;SDS011;69494;43.654;3.884;2023-06-10T03:56:11;5.10;;;2.20;;
79456;SDS011;69494;43.654;3.884;2023-06-10T03:58:36;5.47;;;2.28;;
79456;SDS011;69494;43.654;3.884;2023-06-10T04:01:01;5.57;;;2.03;;
79456;SDS011;69494;43.654;3.884;2023-06-10T04:03:27;9.03;;;2.47;;
79456;SDS011;69494;43.654;3.884;2023-06-10T04:05:52;4.70;;;2.03;;
79456;SDS011;69494;43.654;3.884;2023-06-10T04:08:17;4.70;;;1.80;;
79456;SDS011;69494;43.654;3.884;2023-06-10T04:10:43;3.75;;;1.90;;
79456;SDS011;69494;43.654;3.884;2023-06-10T04:13:08;4.05;;;1.73;;
79456;SDS011;69494;43.654;3.884;2023-06-10T04:15:34;4.53;;;2.08;;
79456;SDS011;69494;43.654;3.884;2023-06-10T04:17:59;3.80;;;1.67;;
79456;SDS011;69494;43.654;3.884;2023-06-10T04:20:26;5.00;;;1.67;;
79456;SDS011;69494;43.654;3.884;2023-06-10T04:22:51;4.28;;;2.10;;
79456;SDS011;69494;43.654;3.884;2023-06-10T04:25:16;4.93;;;1.90;;
79456;SDS011;69494;43.654;3.884;2023-06-10T04:27:42;4.35;;;1.83;;
79456;SDS011;69494;43.654;3.884;2023-06-10T04:30:08;4.78;;;2.10;;
79456;SDS011;69494;43.654;3.884;2023-06-10T04:32:33;4.13;;;1.85;;
79456;SDS011;69494;43.654;3.884;2023-06-10T04:34:59;6.28;;;2.15;;
79456;SDS011;69494;43.654;3.884;2023-06-10T04:37:24;4.47;;;1.70;;
79456;SDS011;69494;43.654;3.884;2023-06-10T04:39:50;4.55;;;1.73;;
79456;SDS011;69494;43.654;3.884;2023-06-10T04:42:15;3.95;;;1.58;;
79456;SDS011;69494;43.654;3.884;2023-06-10T04:44:40;3.97;;;1.63;;
79456;SDS011;69494;43.654;3.884;2023-06-10T04:47:06;3.95;;;1.80;;
79456;SDS011;69494;43.654;3.884;2023-06-10T04:49:32;3.88;;;1.45;;
79456;SDS011;69494;43.654;3.884;2023-06-10T04:51:58;4.90;;;1.75;;
79456;SDS011;69494;43.654;3.884;2023-06-10T04:56:50;3.85;;;1.52;;
79456;SDS011;69494;43.654;3.884;2023-06-10T04:59:15;4.07;;;1.50;;
79456;SDS011;69494;43.654;3.884;2023-06-10T05:01:40;4.67;;;1.73;;
79456;SDS011;69494;43.654;3.884;2023-06-10T05:04:05;5.07;;;1.70;;
79456;SDS011;69494;43.654;3.884;2023-06-10T05:06:31;3.93;;;1.47;;
79456;SDS011;69494;43.654;3.884;2023-06-10T05:08:56;3.40;;;1.50;;
79456;SDS011;69494;43.654;3.884;2023-06-10T05:11:21;4.87;;;1.80;;
79456;SDS011;69494;43.654;3.884;2023-06-10T05:13:47;3.40;;;1.60;;
79456;SDS011;69494;43.654;3.884;2023-06-10T05:16:12;4.53;;;1.80;;
79456;SDS011;69494;43.654;3.884;2023-06-10T05:18:37;4.40;;;1.67;;
79456;SDS011;69494;43.654;3.884;2023-06-10T05:21:02;3.53;;;1.43;;
79456;SDS011;69494;43.654;3.884;2023-06-10T05:23:28;3.73;;;1.53;;
79456;SDS011;69494;43.654;3.884;2023-06-10T05:25:53;3.87;;;1.43;;
79456;SDS011;69494;43.654;3.884;2023-06-10T05:28:18;3.60;;;1.50;;
79456;SDS011;69494;43.654;3.884;2023-06-10T05:30:44;4.38;;;1.65;;
79456;SDS011;69494;43.654;3.884;2023-06-10T05:33:10;3.08;;;1.27;;
79456;SDS011;69494;43.654;3.884;2023-06-10T05:35:35;4.10;;;1.40;;
79456;SDS011;69494;43.654;3.884;2023-06-10T05:38:00;3.83;;;1.30;;
79456;SDS011;69494;43.654;3.884;2023-06-10T05:40:25;3.38;;;1.27;;
79456;SDS011;69494;43.654;3.884;2023-06-10T05:42:51;3.87;;;1.50;;
79456;SDS011;69494;43.654;3.884;2023-06-10T05:45:16;3.75;;;1.42;;
79456;SDS011;69494;43.654;3.884;2023-06-10T05:47:41;3.67;;;1.50;;
79456;SDS011;69494;43.654;3.884;2023-06-10T05:50:06;3.07;;;1.30;;
79456;SDS011;69494;43.654;3.884;2023-06-10T05:52:33;3.00;;;1.13;;
79456;SDS011;69494;43.654;3.884;2023-06-10T05:54:59;3.50;;;1.48;;
79456;SDS011;69494;43.654;3.884;2023-06-10T05:57:24;5.03;;;1.73;;
79456;SDS011;69494;43.654;3.884;2023-06-10T05:59:50;5.80;;;1.40;;
79456;SDS011;69494;43.654;3.884;2023-06-10T06:02:15;3.13;;;1.30;;
79456;SDS011;69494;43.654;3.884;2023-06-10T06:04:40;3.33;;;1.58;;
79456;SDS011;69494;43.654;3.884;2023-06-10T06:07:05;3.17;;;1.30;;
79456;SDS011;69494;43.654;3.884;2023-06-10T06:09:31;4.55;;;1.65;;
79456;SDS011;69494;43.654;3.884;2023-06-10T06:11:56;2.83;;;1.20;;
79456;SDS011;69494;43.654;3.884;2023-06-10T06:14:21;3.80;;;1.40;;
79456;SDS011;69494;43.654;3.884;2023-06-10T06:16:47;3.77;;;1.20;;
79456;SDS011;69494;43.654;3.884;2023-06-10T06:19:12;4.70;;;1.30;;
79456;SDS011;69494;43.654;3.884;2023-06-10T06:21:37;3.90;;;1.35;;
79456;SDS011;69494;43.654;3.884;2023-06-10T06:24:02;3.47;;;1.30;;
79456;SDS011;69494;43.654;3.884;2023-06-10T06:26:28;3.88;;;1.48;;
79456;SDS011;69494;43.654;3.884;2023-06-10T06:28:53;3.60;;;1.43;;
79456;SDS011;69494;43.654;3.884;2023-06-10T06:31:18;3.37;;;1.43;;
79456;SDS011;69494;43.654;3.884;2023-06-10T06:33:43;3.43;;;1.40;;
79456;SDS011;69494;43.654;3.884;2023-06-10T06:36:09;4.77;;;1.27;;
79456;SDS011;69494;43.654;3.884;2023-06-10T06:38:34;6.13;;;1.50;;
79456;SDS011;69494;43.654;3.884;2023-06-10T06:40:59;4.15;;;1.50;;
79456;SDS011;69494;43.654;3.884;2023-06-10T06:43:30;3.05;;;1.25;;
79456;SDS011;69494;43.654;3.884;2023-06-10T06:45:56;3.05;;;1.30;;
79456;SDS011;69494;43.654;3.884;2023-06-10T06:48:21;4.00;;;1.90;;
79456;SDS011;69494;43.654;3.884;2023-06-10T06:50:46;4.10;;;1.70;;
79456;SDS011;69494;43.654;3.884;2023-06-10T06:53:11;3.30;;;1.50;;
79456;SDS011;69494;43.654;3.884;2023-06-10T06:55:37;2.67;;;1.23;;
79456;SDS011;69494;43.654;3.884;2023-06-10T06:58:02;4.60;;;1.60;;
79456;SDS011;69494;43.654;3.884;2023-06-10T07:00:28;8.48;;;1.60;;
79456;SDS011;69494;43.654;3.884;2023-06-10T07:02:54;3.80;;;1.55;;
79456;SDS011;69494;43.654;3.884;2023-06-10T07:05:20;3.97;;;1.67;;
79456;SDS011;69494;43.654;3.884;2023-06-10T07:07:45;4.30;;;1.60;;
79456;SDS011;69494;43.654;3.884;2023-06-10T07:10:10;5.10;;;1.40;;
79456;SDS011;69494;43.654;3.884;2023-06-10T07:12:36;4.22;;;1.55;;
79456;SDS011;69494;43.654;3.884;2023-06-10T07:15:01;6.77;;;2.40;;
79456;SDS011;69494;43.654;3.884;2023-06-10T07:17:26;8.02;;;2.30;;
79456;SDS011;69494;43.654;3.884;2023-06-10T07:19:52;6.28;;;2.25;;
79456;SDS011;69494;43.654;3.884;2023-06-10T07:22:17;7.45;;;2.50;;
79456;SDS011;69494;43.654;3.884;2023-06-10T07:24:42;6.18;;;1.85;;
79456;SDS011;69494;43.654;3.884;2023-06-10T07:27:08;5.13;;;1.87;;
79456;SDS011;69494;43.654;3.884;2023-06-10T07:29:33;5.35;;;1.70;;
79456;SDS011;69494;43.654;3.884;2023-06-10T07:32:00;3.42;;;1.58;;
79456;SDS011;69494;43.654;3.884;2023-06-10T07:34:26;6.70;;;1.77;;
79456;SDS011;69494;43.654;3.884;2023-06-10T07:36:51;4.27;;;1.97;;
79456;SDS011;69494;43.654;3.884;2023-06-10T07:39:16;6.60;;;1.90;;
79456;SDS011;69494;43.654;3.884;2023-06-10T07:41:41;8.20;;;1.90;;
79456;SDS011;69494;43.654;3.884;2023-06-10T07:44:07;5.40;;;1.90;;
79456;SDS011;69494;43.654;3.884;2023-06-10T07:46:32;5.53;;;1.70;;
79456;SDS011;69494;43.654;3.884;2023-06-10T07:48:57;7.93;;;1.95;;
79456;SDS011;69494;43.654;3.884;2023-06-10T07:51:22;7.30;;;1.55;;
79456;SDS011;69494;43.654;3.884;2023-06-10T07:53:48;3.90;;;1.80;;
79456;SDS011;69494;43.654;3.884;2023-06-10T07:56:13;4.30;;;1.75;;
79456;SDS011;69494;43.654;3.884;2023-06-10T07:58:38;4.90;;;1.80;;
79456;SDS011;69494;43.654;3.884;2023-06-10T08:01:04;8.05;;;2.03;;
79456;SDS011;69494;43.654;3.884;2023-06-10T08:03:30;6.07;;;2.13;;
79456;SDS011;69494;43.654;3.884;2023-06-10T08:05:55;3.78;;;1.60;;
79456;SDS011;69494;43.654;3.884;2023-06-10T08:08:21;7.25;;;1.50;;
79456;SDS011;69494;43.654;3.884;2023-06-10T08:10:46;5.75;;;2.03;;
79456;SDS011;69494;43.654;3.884;2023-06-10T08:13:11;3.78;;;1.95;;
79456;SDS011;69494;43.654;3.884;2023-06-10T08:15:37;4.33;;;1.70;;
79456;SDS011;69494;43.654;3.884;2023-06-10T08:18:02;4.75;;;1.80;;
79456;SDS011;69494;43.654;3.884;2023-06-10T08:20:27;4.18;;;1.70;;
79456;SDS011;69494;43.654;3.884;2023-06-10T08:22:52;4.97;;;1.57;;
79456;SDS011;69494;43.654;3.884;2023-06-10T08:25:18;3.60;;;1.50;;
79456;SDS011;69494;43.654;3.884;2023-06-10T08:27:43;4.78;;;1.55;;
79456;SDS011;69494;43.654;3.884;2023-06-10T08:30:08;3.73;;;1.57;;
79456;SDS011;69494;43.654;3.884;2023-06-10T08:32:35;4.00;;;1.40;;
79456;SDS011;69494;43.654;3.884;2023-06-10T08:35:01;4.25;;;1.80;;
79456;SDS011;69494;43.654;3.884;2023-06-10T08:37:26;5.15;;;1.48;;
79456;SDS011;69494;43.654;3.884;2023-06-10T08:39:51;5.45;;;1.83;;
79456;SDS011;69494;43.654;3.884;2023-06-10T08:42:24;4.70;;;1.90;;
79456;SDS011;69494;43.654;3.884;2023-06-10T08:44:54;5.32;;;1.70;;
79456;SDS011;69494;43.654;3.884;2023-06-10T08:47:24;4.82;;;1.80;;
79456;SDS011;69494;43.654;3.884;2023-06-10T08:49:50;5.07;;;2.13;;
79456;SDS011;69494;43.654;3.884;2023-06-10T08:52:16;4.40;;;1.85;;
79456;SDS011;69494;43.654;3.884;2023-06-10T08:54:42;4.38;;;1.80;;
79456;SDS011;69494;43.654;3.884;2023-06-10T08:57:08;5.18;;;1.58;;
79456;SDS011;69494;43.654;3.884;2023-06-10T08:59:34;4.75;;;1.83;;
79456;SDS011;69494;43.654;3.884;2023-06-10T09:01:59;4.13;;;1.63;;
79456;SDS011;69494;43.654;3.884;2023-06-10T09:04:25;4.82;;;1.75;;
79456;SDS011;69494;43.654;3.884;2023-06-10T09:06:52;4.97;;;1.75;;
79456;SDS011;69494;43.654;3.884;2023-06-10T09:09:17;4.88;;;1.73;;
79456;SDS011;69494;43.654;3.884;2023-06-10T09:11:44;4.90;;;1.80;;
79456;SDS011;69494;43.654;3.884;2023-06-10T09:14:10;3.70;;;1.55;;
79456;SDS011;69494;43.654;3.884;2023-06-10T09:16:37;6.88;;;2.08;;
79456;SDS011;69494;43.654;3.884;2023-06-10T09:19:02;4.78;;;1.77;;
79456;SDS011;69494;43.654;3.884;2023-06-10T09:21:32;3.88;;;1.90;;
79456;SDS011;69494;43.654;3.884;2023-06-10T09:23:58;6.10;;;2.00;;
79456;SDS011;69494;43.654;3.884;2023-06-10T09:26:26;4.85;;;2.00;;
79456;SDS011;69494;43.654;3.884;2023-06-10T09:28:54;5.03;;;1.85;;
79456;SDS011;69494;43.654;3.884;2023-06-10T09:31:22;3.80;;;1.85;;
79456;SDS011;69494;43.654;3.884;2023-06-10T09:33:48;5.18;;;2.03;;
79456;SDS011;69494;43.654;3.884;2023-06-10T09:36:21;4.45;;;1.67;;
79456;SDS011;69494;43.654;3.884;2023-06-10T09:38:46;5.22;;;1.90;;
79456;SDS011;69494;43.654;3.884;2023-06-10T09:41:14;4.90;;;2.00;;
79456;SDS011;69494;43.654;3.884;2023-06-10T09:43:41;4.30;;;1.90;;
79456;SDS011;69494;43.654;3.884;2023-06-10T09:48:35;4.27;;;1.70;;
79456;SDS011;69494;43.654;3.884;2023-06-10T09:51:06;3.95;;;1.65;;
79456;SDS011;69494;43.654;3.884;2023-06-10T09:53:33;6.40;;;2.10;;
79456;SDS011;69494;43.654;3.884;2023-06-10T09:55:59;4.13;;;1.73;;
79456;SDS011;69494;43.654;3.884;2023-06-10T09:58:37;5.07;;;1.90;;
79456;SDS011;69494;43.654;3.884;2023-06-10T10:01:06;4.30;;;1.67;;
79456;SDS011;69494;43.654;3.884;2023-06-10T10:03:33;4.97;;;1.70;;
79456;SDS011;69494;43.654;3.884;2023-06-10T10:05:58;4.25;;;1.77;;
79456;SDS011;69494;43.654;3.884;2023-06-10T10:08:24;3.70;;;1.45;;
79456;SDS011;69494;43.654;3.884;2023-06-10T10:10:50;5.22;;;1.60;;
79456;SDS011;69494;43.654;3.884;2023-06-10T10:13:15;4.20;;;1.70;;
79456;SDS011;69494;43.654;3.884;2023-06-10T10:15:40;4.80;;;1.90;;
79456;SDS011;69494;43.654;3.884;2023-06-10T10:18:07;5.47;;;2.05;;
79456;SDS011;69494;43.654;3.884;2023-06-10T10:20:33;5.32;;;1.88;;
79456;SDS011;69494;43.654;3.884;2023-06-10T10:22:59;4.13;;;1.40;;
79456;SDS011;69494;43.654;3.884;2023-06-10T10:25:38;5.75;;;1.52;;
79456;SDS011;69494;43.654;3.884;2023-06-10T10:30:37;6.50;;;1.80;;
79456;SDS011;69494;43.654;3.884;2023-06-10T10:33:05;3.38;;;1.40;;
79456;SDS011;69494;43.654;3.884;2023-06-10T10:35:32;3.78;;;1.60;;
79456;SDS011;69494;43.654;3.884;2023-06-10T10:40:24;3.55;;;1.20;;
79456;SDS011;69494;43.654;3.884;2023-06-10T10:42:50;4.00;;;1.70;;
79456;SDS011;69494;43.654;3.884;2023-06-10T10:45:15;3.38;;;1.40;;
79456;SDS011;69494;43.654;3.884;2023-06-10T10:47:41;4.45;;;1.40;;
79456;SDS011;69494;43.654;3.884;2023-06-10T10:50:17;5.40;;;1.55;;
79456;SDS011;69494;43.654;3.884;2023-06-10T10:52:48;3.72;;;1.75;;
79456;SDS011;69494;43.654;3.884;2023-06-10T10:57:40;4.07;;;1.40;;
79456;SDS011;69494;43.654;3.884;2023-06-10T11:00:06;5.05;;;1.50;;
79456;SDS011;69494;43.654;3.884;2023-06-10T11:04:57;4.20;;;1.73;;
79456;SDS011;69494;43.654;3.884;2023-06-10T11:07:24;3.67;;;1.52;;
79456;SDS011;69494;43.654;3.884;2023-06-10T11:10:04;4.57;;;1.50;;
79456;SDS011;69494;43.654;3.884;2023-06-10T11:15:27;2.85;;;1.25;;
79456;SDS011;69494;43.654;3.884;2023-06-10T11:28:35;4.40;;;1.67;;
79456;SDS011;69494;43.654;3.884;2023-06-10T11:31:01;6.13;;;1.60;;
79456;SDS011;69494;43.654;3.884;2023-06-10T11:33:26;4.10;;;1.63;;
79456;SDS011;69494;43.654;3.884;2023-06-10T11:35:51;3.17;;;1.20;;
79456;SDS011;69494;43.654;3.884;2023-06-10T11:38:17;3.83;;;1.70;;
79456;SDS011;69494;43.654;3.884;2023-06-10T11:40:50;5.15;;;1.60;;
79456;SDS011;69494;43.654;3.884;2023-06-10T11:43:18;4.10;;;1.75;;
79456;SDS011;69494;43.654;3.884;2023-06-10T11:45:43;5.75;;;1.60;;
79456;SDS011;69494;43.654;3.884;2023-06-10T11:48:09;3.50;;;1.50;;
79456;SDS011;69494;43.654;3.884;2023-06-10T11:50:34;3.97;;;1.67;;
79456;SDS011;69494;43.654;3.884;2023-06-10T11:53:00;3.25;;;1.50;;
79456;SDS011;69494;43.654;3.884;2023-06-10T11:55:25;4.30;;;1.60;;
79456;SDS011;69494;43.654;3.884;2023-06-10T11:57:51;4.00;;;1.40;;
79456;SDS011;69494;43.654;3.884;2023-06-10T12:00:22;4.72;;;1.58;;
79456;SDS011;69494;43.654;3.884;2023-06-10T12:02:54;3.92;;;1.60;;
79456;SDS011;69494;43.654;3.884;2023-06-10T12:05:20;4.88;;;1.88;;
79456;SDS011;69494;43.654;3.884;2023-06-10T12:07:45;4.00;;;1.60;;
79456;SDS011;69494;43.654;3.884;2023-06-10T12:10:11;3.93;;;1.60;;
79456;SDS011;69494;43.654;3.884;2023-06-10T12:12:36;5.82;;;1.80;;
79456;SDS011;69494;43.654;3.884;2023-06-10T12:15:06;3.60;;;1.60;;
79456;SDS011;69494;43.654;3.884;2023-06-10T12:20:02;5.28;;;1.60;;
79456;SDS011;69494;43.654;3.884;2023-06-10T12:22:44;3.90;;;1.60;;
79456;SDS011;69494;43.654;3.884;2023-06-10T12:25:10;4.10;;;1.65;;
79456;SDS011;69494;43.654;3.884;2023-06-10T12:27:36;3.63;;;1.50;;
79456;SDS011;69494;43.654;3.884;2023-06-10T12:30:02;3.95;;;1.60;;
79456;SDS011;69494;43.654;3.884;2023-06-10T12:33:02;4.30;;;1.63;;
79456;SDS011;69494;43.654;3.884;2023-06-10T12:35:21;5.65;;;2.00;;
79456;SDS011;69494;43.654;3.884;2023-06-10T12:40:31;4.63;;;1.95;;
79456;SDS011;69494;43.654;3.884;2023-06-10T12:42:58;3.75;;;1.40;;
79456;SDS011;69494;43.654;3.884;2023-06-10T12:45:27;3.63;;;1.50;;
79456;SDS011;69494;43.654;3.884;2023-06-10T12:48:03;3.88;;;1.70;;
79456;SDS011;69494;43.654;3.884;2023-06-10T12:50:29;3.75;;;1.63;;
79456;SDS011;69494;43.654;3.884;2023-06-10T12:52:55;4.47;;;1.52;;
79456;SDS011;69494;43.654;3.884;2023-06-10T12:55:20;5.10;;;1.70;;
79456;SDS011;69494;43.654;3.884;2023-06-10T12:57:49;2.83;;;1.30;;
79456;SDS011;69494;43.654;3.884;2023-06-10T13:00:15;3.75;;;1.45;;
79456;SDS011;69494;43.654;3.884;2023-06-10T13:02:40;3.83;;;1.70;;
79456;SDS011;69494;43.654;3.884;2023-06-10T13:05:05;3.90;;;1.73;;
79456;SDS011;69494;43.654;3.884;2023-06-10T13:07:31;4.50;;;2.03;;
79456;SDS011;69494;43.654;3.884;2023-06-10T13:09:56;4.47;;;1.80;;
79456;SDS011;69494;43.654;3.884;2023-06-10T13:12:22;4.27;;;1.80;;
79456;SDS011;69494;43.654;3.884;2023-06-10T13:14:47;4.30;;;1.93;;
79456;SDS011;69494;43.654;3.884;2023-06-10T13:17:12;3.97;;;1.70;;
79456;SDS011;69494;43.654;3.884;2023-06-10T13:19:37;4.10;;;1.80;;
79456;SDS011;69494;43.654;3.884;2023-06-10T13:22:03;4.15;;;2.13;;
79456;SDS011;69494;43.654;3.884;2023-06-10T13:24:28;4.18;;;1.83;;
79456;SDS011;69494;43.654;3.884;2023-06-10T13:26:53;5.80;;;1.73;;
79456;SDS011;69494;43.654;3.884;2023-06-10T13:29:20;6.65;;;1.90;;
79456;SDS011;69494;43.654;3.884;2023-06-10T13:31:45;5.32;;;1.90;;
79456;SDS011;69494;43.654;3.884;2023-06-10T13:34:10;4.97;;;1.70;;
79456;SDS011;69494;43.654;3.884;2023-06-10T13:36:36;3.85;;;1.60;;
79456;SDS011;69494;43.654;3.884;2023-06-10T13:39:02;3.78;;;1.77;;
79456;SDS011;69494;43.654;3.884;2023-06-10T13:41:27;6.07;;;1.90;;
79456;SDS011;69494;43.654;3.884;2023-06-10T13:43:53;4.78;;;1.80;;
79456;SDS011;69494;43.654;3.884;2023-06-10T13:46:19;5.32;;;1.98;;
79456;SDS011;69494;43.654;3.884;2023-06-10T13:48:46;4.82;;;1.80;;
79456;SDS011;69494;43.654;3.884;2023-06-10T13:51:11;4.35;;;1.90;;
79456;SDS011;69494;43.654;3.884;2023-06-10T13:53:37;4.97;;;1.65;;
79456;SDS011;69494;43.654;3.884;2023-06-10T13:56:02;4.45;;;1.63;;
79456;SDS011;69494;43.654;3.884;2023-06-10T13:58:27;3.85;;;1.48;;
79456;SDS011;69494;43.654;3.884;2023-06-10T14:00:53;4.25;;;2.13;;
79456;SDS011;69494;43.654;3.884;2023-06-10T14:03:18;5.90;;;2.15;;
79456;SDS011;69494;43.654;3.884;2023-06-10T14:05:43;9.95;;;2.60;;
79456;SDS011;69494;43.654;3.884;2023-06-10T14:08:08;8.55;;;2.30;;
79456;SDS011;69494;43.654;3.884;2023-06-10T14:10:34;6.28;;;2.28;;
79456;SDS011;69494;43.654;3.884;2023-06-10T14:12:59;7.65;;;2.10;;
79456;SDS011;69494;43.654;3.884;2023-06-10T14:15:25;5.35;;;2.63;;
79456;SDS011;69494;43.654;3.884;2023-06-10T14:17:50;8.73;;;2.40;;
79456;SDS011;69494;43.654;3.884;2023-06-10T14:20:16;8.13;;;2.53;;
79456;SDS011;69494;43.654;3.884;2023-06-10T14:22:41;5.97;;;2.27;;
79456;SDS011;69494;43.654;3.884;2023-06-10T14:25:06;4.88;;;2.35;;
79456;SDS011;69494;43.654;3.884;2023-06-10T14:27:32;6.35;;;2.35;;
79456;SDS011;69494;43.654;3.884;2023-06-10T14:29:57;5.30;;;2.20;;
79456;SDS011;69494;43.654;3.884;2023-06-10T14:32:22;5.32;;;2.15;;
79456;SDS011;69494;43.654;3.884;2023-06-10T14:34:47;4.30;;;2.10;;
79456;SDS011;69494;43.654;3.884;2023-06-10T14:37:13;8.40;;;2.77;;
79456;SDS011;69494;43.654;3.884;2023-06-10T14:39:38;5.00;;;2.27;;
79456;SDS011;69494;43.654;3.884;2023-06-10T14:42:03;7.07;;;2.30;;
79456;SDS011;69494;43.654;3.884;2023-06-10T14:44:28;4.65;;;2.22;;
79456;SDS011;69494;43.654;3.884;2023-06-10T14:46:54;5.32;;;1.90;;
79456;SDS011;69494;43.654;3.884;2023-06-10T14:49:19;5.78;;;2.55;;
79456;SDS011;69494;43.654;3.884;2023-06-10T14:51:45;5.63;;;2.55;;
79456;SDS011;69494;43.654;3.884;2023-06-10T14:54:10;4.10;;;2.03;;
79456;SDS011;69494;43.654;3.884;2023-06-10T14:56:36;4.30;;;2.50;;
79456;SDS011;69494;43.654;3.884;2023-06-10T14:59:01;5.40;;;1.88;;
79456;SDS011;69494;43.654;3.884;2023-06-10T15:01:26;6.77;;;2.27;;
79456;SDS011;69494;43.654;3.884;2023-06-10T15:03:51;6.40;;;2.50;;
79456;SDS011;69494;43.654;3.884;2023-06-10T15:06:17;3.90;;;1.90;;
79456;SDS011;69494;43.654;3.884;2023-06-10T15:08:45;6.78;;;2.25;;
79456;SDS011;69494;43.654;3.884;2023-06-10T15:11:13;4.35;;;1.98;;
79456;SDS011;69494;43.654;3.884;2023-06-10T15:13:38;5.40;;;2.05;;
79456;SDS011;69494;43.654;3.884;2023-06-10T15:16:04;4.95;;;1.73;;
79456;SDS011;69494;43.654;3.884;2023-06-10T15:18:29;7.63;;;1.88;;
79456;SDS011;69494;43.654;3.884;2023-06-10T15:20:54;4.67;;;2.00;;